createdAt,value
2023-03-08T00:01:13.960Z,7.53
2023-03-08T00:03:42.479Z,7.10
2023-03-08T00:06:14.041Z,7.40
2023-03-08T00:08:42.727Z,6.90
2023-03-08T00:11:13.842Z,7.33
2023-03-08T00:13:42.157Z,7.13
2023-03-08T00:16:12.976Z,6.77
2023-03-08T00:18:41.944Z,6.37
2023-03-08T00:21:12.777Z,6.53
2023-03-08T00:23:41.540Z,6.30
2023-03-08T00:26:11.579Z,6.00
2023-03-08T00:28:39.914Z,6.63
2023-03-08T00:31:10.665Z,6.73
2023-03-08T00:33:39.313Z,6.60
2023-03-08T00:36:09.766Z,6.80
2023-03-08T00:38:38.445Z,6.60
2023-03-08T00:41:06.849Z,7.67
2023-03-08T00:43:36.817Z,6.83
2023-03-08T00:46:05.160Z,7.73
2023-03-08T00:48:34.075Z,8.17
2023-03-08T00:51:02.472Z,9.40
2023-03-08T00:53:30.771Z,10.27
2023-03-08T00:56:00.627Z,16.63
2023-03-08T00:58:30.404Z,10.07
2023-03-08T01:01:00.877Z,7.10
2023-03-08T01:03:28.995Z,6.77
2023-03-08T01:05:58.799Z,5.27
2023-03-08T01:08:27.855Z,7.90
2023-03-08T01:10:58.066Z,7.27
2023-03-08T01:13:27.763Z,6.40
2023-03-08T01:15:56.068Z,6.53
2023-03-08T01:18:25.942Z,7.17
2023-03-08T01:20:58.235Z,7.87
2023-03-08T01:23:26.512Z,6.93
2023-03-08T01:26:00.813Z,7.27
2023-03-08T01:28:29.368Z,7.50
2023-03-08T01:31:02.838Z,7.30
2023-03-08T01:33:32.428Z,7.70
2023-03-08T01:36:00.595Z,6.93
2023-03-08T01:38:28.594Z,7.70
2023-03-08T01:40:57.998Z,6.27
2023-03-08T01:43:28.491Z,6.40
2023-03-08T01:46:16.799Z,6.27
2023-03-08T01:48:52.000Z,5.63
2023-03-08T01:51:27.719Z,4.90
2023-03-08T01:53:57.401Z,5.77
2023-03-08T01:56:26.992Z,5.33
2023-03-08T01:58:56.360Z,5.27
2023-03-08T02:01:24.510Z,5.60
2023-03-08T02:03:54.327Z,5.87
2023-03-08T02:06:22.767Z,5.60
2023-03-08T02:08:51.095Z,5.00
2023-03-08T02:11:22.241Z,5.23
2023-03-08T02:13:51.378Z,5.60
2023-03-08T02:16:20.134Z,6.27
2023-03-08T02:18:55.287Z,5.27
2023-03-08T02:21:23.620Z,5.00
2023-03-08T02:23:53.304Z,5.07
2023-03-08T02:26:22.086Z,5.53
2023-03-08T02:28:50.220Z,4.77
2023-03-08T02:31:18.294Z,6.97
2023-03-08T02:33:46.436Z,4.70
2023-03-08T02:36:14.558Z,5.10
2023-03-08T02:38:42.690Z,5.23
2023-03-08T02:41:12.183Z,4.60
2023-03-08T02:43:40.339Z,4.30
2023-03-08T02:46:08.568Z,4.20
2023-03-08T02:48:36.643Z,4.77
2023-03-08T02:51:04.760Z,5.20
2023-03-08T02:53:32.806Z,4.87
2023-03-08T02:56:01.039Z,3.40
2023-03-08T02:58:30.508Z,3.77
2023-03-08T03:00:58.786Z,3.20
2023-03-08T03:03:26.916Z,3.50
2023-03-08T03:05:54.977Z,4.43
2023-03-08T03:08:23.066Z,3.43
2023-03-08T03:10:51.103Z,3.73
2023-03-08T03:13:20.715Z,3.93
2023-03-08T03:15:50.159Z,3.97
2023-03-08T03:18:18.266Z,3.10
2023-03-08T03:20:46.613Z,3.50
2023-03-08T03:23:14.599Z,3.43
2023-03-08T03:25:43.010Z,3.50
2023-03-08T03:28:11.013Z,3.40
2023-03-08T03:30:41.084Z,2.73
2023-03-08T03:33:10.723Z,3.63
2023-03-08T03:35:39.697Z,3.30
2023-03-08T03:38:07.938Z,3.17
2023-03-08T03:40:35.996Z,3.20
2023-03-08T03:43:04.018Z,2.90
2023-03-08T03:45:32.033Z,3.10
2023-03-08T03:48:00.134Z,3.03
2023-03-08T03:50:29.578Z,2.87
2023-03-08T03:52:57.564Z,3.10
2023-03-08T03:55:25.685Z,3.10
2023-03-08T03:57:53.749Z,3.37
2023-03-08T04:00:22.268Z,2.90
2023-03-08T04:02:50.370Z,3.03
2023-03-08T04:05:18.685Z,2.50
2023-03-08T04:07:48.124Z,2.40
2023-03-08T04:10:16.267Z,2.50
2023-03-08T04:12:44.373Z,2.63
2023-03-08T04:15:12.674Z,2.50
2023-03-08T04:17:41.023Z,2.33
2023-03-08T04:20:10.210Z,2.53
2023-03-08T04:22:38.556Z,2.47
2023-03-08T04:25:10.512Z,2.20
2023-03-08T04:27:38.568Z,2.50
2023-03-08T04:30:07.803Z,2.50
2023-03-08T04:32:36.019Z,2.80
2023-03-08T04:35:04.200Z,2.87
2023-03-08T04:37:32.513Z,2.40
2023-03-08T04:40:00.524Z,2.60
2023-03-08T04:42:29.960Z,2.37
2023-03-08T04:44:57.974Z,2.00
2023-03-08T04:47:26.035Z,2.50
2023-03-08T04:49:54.268Z,2.77
2023-03-08T04:52:22.278Z,2.60
2023-03-08T04:54:50.574Z,2.07
2023-03-08T04:57:20.825Z,2.60
2023-03-08T04:59:50.353Z,2.43
2023-03-08T05:02:18.445Z,2.37
2023-03-08T05:04:46.840Z,2.87
2023-03-08T05:07:15.323Z,2.80
2023-03-08T05:09:43.354Z,2.50
2023-03-08T05:12:11.553Z,2.67
2023-03-08T05:14:39.910Z,2.47
2023-03-08T05:17:09.564Z,2.40
2023-03-08T05:19:37.760Z,2.33
2023-03-08T05:22:06.748Z,2.50
2023-03-08T05:24:35.065Z,2.57
2023-03-08T05:27:03.970Z,2.37
2023-03-08T05:29:31.953Z,2.33
2023-03-08T05:32:01.121Z,2.77
2023-03-08T05:34:31.020Z,2.27
2023-03-08T05:36:59.877Z,2.10
2023-03-08T05:39:28.580Z,2.17
2023-03-08T05:41:56.594Z,2.40
2023-03-08T05:44:24.584Z,3.30
2023-03-08T05:46:53.122Z,2.90
2023-03-08T05:49:21.338Z,2.60
2023-03-08T05:51:50.931Z,2.57
2023-03-08T05:54:19.710Z,2.73
2023-03-08T05:56:47.711Z,2.43
2023-03-08T05:59:15.838Z,2.53
2023-03-08T06:01:43.961Z,2.57
2023-03-08T06:04:12.021Z,2.30
2023-03-08T06:06:40.144Z,2.20
2023-03-08T06:09:09.553Z,2.70
2023-03-08T06:11:37.569Z,3.10
2023-03-08T06:14:05.572Z,3.20
2023-03-08T06:16:33.699Z,3.30
2023-03-08T06:19:03.054Z,3.37
2023-03-08T06:21:31.155Z,3.20
2023-03-08T06:23:59.146Z,3.50
2023-03-08T06:26:28.640Z,3.23
2023-03-08T06:28:56.719Z,2.80
2023-03-08T06:31:24.807Z,2.90
2023-03-08T06:33:53.053Z,2.90
2023-03-08T06:36:23.858Z,2.67
2023-03-08T06:38:52.404Z,3.07
2023-03-08T06:41:21.481Z,2.60
2023-03-08T06:43:50.888Z,3.77
2023-03-08T06:46:20.316Z,3.30
2023-03-08T06:48:49.918Z,3.20
2023-03-08T06:51:18.307Z,3.73
2023-03-08T06:53:47.354Z,3.20
2023-03-08T06:56:16.717Z,3.17
2023-03-08T06:58:45.039Z,3.40
2023-03-08T07:01:15.212Z,3.47
2023-03-08T07:03:45.382Z,3.73
2023-03-08T07:06:13.755Z,3.47
2023-03-08T07:08:42.142Z,3.37
2023-03-08T07:11:10.801Z,3.80
2023-03-08T07:13:39.074Z,3.83
2023-03-08T07:16:08.828Z,3.57
2023-03-08T07:18:38.257Z,3.77
2023-03-08T07:21:07.152Z,3.93
2023-03-08T07:23:35.354Z,4.10
2023-03-08T07:26:06.208Z,4.10
2023-03-08T07:28:34.324Z,4.50
2023-03-08T07:31:02.604Z,4.43
2023-03-08T07:33:30.937Z,3.70
2023-03-08T07:36:03.117Z,3.40
2023-03-08T07:38:31.388Z,4.00
2023-03-08T07:40:59.524Z,4.57
2023-03-08T07:43:27.573Z,4.20
2023-03-08T07:45:55.635Z,4.30
2023-03-08T07:48:23.671Z,4.27
2023-03-08T07:50:51.807Z,4.87
2023-03-08T07:53:21.342Z,4.80
2023-03-08T07:55:49.448Z,4.60
2023-03-08T07:58:17.682Z,4.87
2023-03-08T08:00:45.836Z,5.20
2023-03-08T08:03:13.999Z,4.50
2023-03-08T08:05:42.370Z,4.90
2023-03-08T08:08:10.512Z,4.97
2023-03-08T08:10:39.939Z,4.20
2023-03-08T08:13:08.098Z,4.30
2023-03-08T08:15:36.108Z,4.10
2023-03-08T08:18:04.399Z,4.70
2023-03-08T08:20:32.563Z,3.53
2023-03-08T08:23:00.904Z,3.70
2023-03-08T08:25:29.336Z,3.77
2023-03-08T08:27:58.768Z,4.30
2023-03-08T08:30:26.816Z,4.20
2023-03-08T08:32:54.788Z,3.97
2023-03-08T08:35:28.844Z,2.57
2023-03-08T08:38:02.132Z,3.73
2023-03-08T08:40:30.285Z,3.90
2023-03-08T08:42:59.658Z,3.70
2023-03-08T08:45:27.747Z,3.40
2023-03-08T08:47:55.740Z,2.80
2023-03-08T08:50:23.893Z,3.70
2023-03-08T08:52:52.026Z,3.00
2023-03-08T08:55:20.021Z,3.03
2023-03-08T08:57:48.082Z,3.40
2023-03-08T09:00:20.409Z,2.90
2023-03-08T09:02:48.794Z,3.33
2023-03-08T09:05:17.421Z,3.00
2023-03-08T09:07:45.505Z,2.80
2023-03-08T09:10:14.173Z,2.53
2023-03-08T09:12:42.942Z,2.57
2023-03-08T09:15:11.791Z,3.00
2023-03-08T09:17:41.529Z,3.30
2023-03-08T09:20:11.331Z,3.27
2023-03-08T09:22:40.068Z,3.23
2023-03-08T09:25:09.448Z,3.03
2023-03-08T09:27:38.314Z,2.60
2023-03-08T09:30:09.495Z,2.77
2023-03-08T09:32:37.848Z,2.93
2023-03-08T09:35:08.155Z,2.60
2023-03-08T09:37:36.369Z,2.60
2023-03-08T09:40:09.654Z,2.77
2023-03-08T09:42:39.366Z,3.27
2023-03-08T09:45:16.055Z,2.30
2023-03-08T09:47:48.152Z,2.80
2023-03-08T09:50:29.089Z,2.10
2023-03-08T09:53:01.328Z,2.60
2023-03-08T09:55:32.386Z,2.60
2023-03-08T09:58:03.713Z,2.43
2023-03-08T10:00:34.323Z,2.17
2023-03-08T10:03:19.113Z,2.30
2023-03-08T10:05:54.935Z,2.60
2023-03-08T10:08:27.245Z,2.73
2023-03-08T10:11:01.429Z,2.77
2023-03-08T10:13:32.801Z,3.10
2023-03-08T10:16:14.079Z,2.70
2023-03-08T10:18:46.637Z,3.53
2023-03-08T10:21:19.424Z,2.60
2023-03-08T10:23:50.029Z,3.27
2023-03-08T10:26:18.937Z,2.30
2023-03-08T10:28:47.109Z,2.63
2023-03-08T10:31:24.400Z,2.40
2023-03-08T10:34:02.181Z,2.83
2023-03-08T10:36:31.816Z,2.60
2023-03-08T10:39:05.115Z,2.77
2023-03-08T10:41:38.669Z,2.20
2023-03-08T10:44:06.869Z,2.63
2023-03-08T10:46:34.976Z,2.70
2023-03-08T10:49:10.845Z,2.97
2023-03-08T10:51:40.223Z,3.43
2023-03-08T10:54:15.907Z,2.97
2023-03-08T10:56:46.902Z,3.20
2023-03-08T10:59:22.078Z,3.27
2023-03-08T11:01:52.123Z,3.10
2023-03-08T11:04:22.283Z,3.00
2023-03-08T11:06:52.332Z,3.03
2023-03-08T11:09:23.985Z,2.73
2023-03-08T11:11:52.017Z,2.43
2023-03-08T11:14:20.425Z,2.43
2023-03-08T11:17:14.395Z,2.40
2023-03-08T11:19:59.926Z,2.97
2023-03-08T11:22:47.672Z,2.80
2023-03-08T11:25:24.376Z,2.40
2023-03-08T11:28:05.225Z,2.27
2023-03-08T11:30:43.617Z,2.83
2023-03-08T11:33:31.748Z,2.60
2023-03-08T11:36:06.587Z,3.00
2023-03-08T11:38:38.045Z,3.20
2023-03-08T11:41:18.952Z,2.73
2023-03-08T11:44:05.138Z,2.97
2023-03-08T11:46:45.634Z,3.00
2023-03-08T11:49:31.663Z,3.07
2023-03-08T11:52:07.933Z,3.93
2023-03-08T11:54:51.141Z,3.80
2023-03-08T11:57:19.938Z,3.47
2023-03-08T11:59:52.799Z,4.23
2023-03-08T12:02:23.323Z,3.87
2023-03-08T12:05:01.656Z,4.10
2023-03-08T12:07:35.619Z,4.27
2023-03-08T12:10:15.584Z,4.97
2023-03-08T12:12:49.539Z,3.90
2023-03-08T12:15:27.526Z,4.70
2023-03-08T12:18:00.464Z,4.60
2023-03-08T12:20:35.830Z,4.03
2023-03-08T12:23:14.171Z,4.10
2023-03-08T12:25:47.313Z,4.10
2023-03-08T12:28:24.498Z,4.77
2023-03-08T12:31:05.193Z,4.13
2023-03-08T12:33:34.746Z,4.10
2023-03-08T12:36:06.396Z,5.40
2023-03-08T12:38:37.532Z,3.97
2023-03-08T12:41:21.572Z,3.93
2023-03-08T12:44:00.176Z,4.27
2023-03-08T12:46:28.467Z,3.83
2023-03-08T12:48:58.075Z,3.70
2023-03-08T12:51:33.362Z,4.17
2023-03-08T12:54:04.112Z,3.93
2023-03-08T12:56:37.510Z,3.90
2023-03-08T12:59:36.296Z,4.20
2023-03-08T13:02:25.140Z,3.93
2023-03-08T13:05:04.676Z,3.90
2023-03-08T13:07:38.481Z,3.67
2023-03-08T13:10:19.480Z,4.27
2023-03-08T13:13:37.380Z,3.57
2023-03-08T13:16:22.203Z,4.47
2023-03-08T13:18:54.748Z,3.87
2023-03-08T13:21:34.584Z,3.70
2023-03-08T13:24:12.981Z,3.60
2023-03-08T13:26:55.682Z,3.97
2023-03-08T13:29:31.536Z,3.97
2023-03-08T13:31:59.970Z,3.87
2023-03-08T13:34:30.821Z,4.20
2023-03-08T13:36:59.630Z,3.80
2023-03-08T13:39:30.168Z,3.70
2023-03-08T13:42:08.057Z,3.53
2023-03-08T13:44:37.686Z,3.37
2023-03-08T13:47:16.790Z,3.40
2023-03-08T13:49:46.689Z,4.30
2023-03-08T13:52:19.011Z,3.13
2023-03-08T13:54:50.439Z,2.70
2023-03-08T13:57:23.788Z,3.20
2023-03-08T13:59:55.595Z,3.13
2023-03-08T14:02:26.022Z,2.80
2023-03-08T14:04:54.677Z,3.10
2023-03-08T14:07:25.214Z,3.67
2023-03-08T14:09:53.404Z,2.50
2023-03-08T14:12:23.363Z,2.73
2023-03-08T14:14:55.795Z,2.60
2023-03-08T14:17:27.314Z,2.30
2023-03-08T14:19:57.779Z,2.33
2023-03-08T14:22:38.628Z,2.50
2023-03-08T14:25:17.995Z,2.30
2023-03-08T14:27:46.346Z,2.50
2023-03-08T14:30:18.555Z,2.67
2023-03-08T14:32:59.621Z,2.40
2023-03-08T14:35:29.920Z,2.70
2023-03-08T14:37:58.955Z,2.50
2023-03-08T14:40:33.184Z,2.60
2023-03-08T14:43:04.926Z,2.70
2023-03-08T14:45:40.210Z,2.50
2023-03-08T14:48:25.204Z,2.80
2023-03-08T14:50:55.856Z,2.43
2023-03-08T14:53:31.320Z,3.27
2023-03-08T14:56:00.706Z,2.90
2023-03-08T14:58:31.748Z,2.77
2023-03-08T15:01:03.317Z,2.13
2023-03-08T15:03:32.826Z,2.93
2023-03-08T15:06:06.485Z,3.40
2023-03-08T15:08:34.844Z,3.00
2023-03-08T15:11:03.307Z,3.80
2023-03-08T15:13:31.948Z,3.80
2023-03-08T15:16:01.452Z,3.57
2023-03-08T15:18:30.083Z,3.50
2023-03-08T15:20:58.776Z,3.30
2023-03-08T15:23:29.830Z,3.53
2023-03-08T15:25:59.282Z,3.00
2023-03-08T15:28:27.607Z,3.20
2023-03-08T15:30:56.191Z,3.97
2023-03-08T15:33:25.789Z,3.60
2023-03-08T15:35:54.205Z,3.47
2023-03-08T15:38:24.185Z,3.17
2023-03-08T15:40:52.774Z,3.17
2023-03-08T15:43:21.097Z,3.60
2023-03-08T15:45:49.484Z,3.87
2023-03-08T15:48:19.910Z,3.97
2023-03-08T15:50:49.572Z,3.70
2023-03-08T15:53:29.605Z,4.10
2023-03-08T15:56:03.450Z,4.10
2023-03-08T15:58:31.868Z,4.57
2023-03-08T16:01:00.261Z,4.80
2023-03-08T16:03:31.000Z,4.40
2023-03-08T16:06:00.864Z,5.13
2023-03-08T16:08:29.591Z,5.20
2023-03-08T16:11:03.794Z,4.70
2023-03-08T16:13:32.313Z,4.97
2023-03-08T16:16:01.503Z,5.30
2023-03-08T16:18:30.277Z,5.20
2023-03-08T16:20:58.871Z,5.80
2023-03-08T16:23:28.458Z,5.40
2023-03-08T16:26:14.286Z,8.53
2023-03-08T16:28:44.888Z,7.67
2023-03-08T16:31:13.426Z,7.70
2023-03-08T16:33:41.943Z,7.10
2023-03-08T16:36:10.734Z,6.70
2023-03-08T16:38:40.493Z,8.57
2023-03-08T16:41:13.048Z,9.07
2023-03-08T16:43:49.235Z,8.97
2023-03-08T16:46:19.703Z,7.33
2023-03-08T16:48:49.890Z,7.83
2023-03-08T16:51:20.079Z,7.83
2023-03-08T16:53:50.908Z,8.03
2023-03-08T16:56:20.352Z,72.80
2023-03-08T16:58:50.285Z,12.23
2023-03-08T17:01:20.655Z,8.83
2023-03-08T17:03:49.443Z,11.47
2023-03-08T17:06:20.069Z,21.47
2023-03-08T17:08:49.952Z,12.77
2023-03-08T17:11:19.014Z,10.30
2023-03-08T17:14:02.981Z,10.73
2023-03-08T17:16:46.700Z,10.60
2023-03-08T17:19:15.925Z,9.73
2023-03-08T17:38:42.936Z,11.03
2023-03-08T17:44:11.895Z,13.07
2023-03-08T17:46:40.311Z,15.17
2023-03-08T17:49:09.178Z,14.40
2023-03-08T17:51:37.770Z,13.13
2023-03-08T17:56:52.036Z,21.83
2023-03-08T17:59:42.266Z,24.80
2023-03-08T18:02:14.482Z,23.80
2023-03-08T18:04:49.935Z,20.27
2023-03-08T18:10:13.818Z,22.13
2023-03-08T18:15:39.636Z,28.63
2023-03-08T18:18:08.126Z,30.90
2023-03-08T18:20:36.561Z,29.67
2023-03-08T18:23:07.238Z,25.27
2023-03-08T18:25:42.123Z,27.47
2023-03-08T18:33:39.490Z,44.13
2023-03-08T18:38:53.401Z,36.93
2023-03-08T18:41:28.228Z,34.47
2023-03-08T18:46:54.363Z,29.10
2023-03-08T19:15:47.544Z,27.93
2023-03-08T19:18:16.229Z,26.90
2023-03-08T19:20:45.287Z,29.73
2023-03-08T19:23:21.696Z,29.83
2023-03-08T19:26:07.990Z,28.33
2023-03-08T19:28:50.218Z,27.57
2023-03-08T19:31:21.348Z,28.80
2023-03-08T19:33:49.872Z,27.37
2023-03-08T19:36:18.614Z,24.27
2023-03-08T19:38:48.822Z,25.27
2023-03-08T19:41:17.807Z,21.87
2023-03-08T19:43:46.456Z,23.77
2023-03-08T19:46:28.710Z,27.20
2023-03-08T19:49:00.035Z,24.87
2023-03-08T19:51:28.518Z,26.67
2023-03-08T19:53:57.825Z,24.23
2023-03-08T19:56:37.772Z,25.00
2023-03-08T19:59:22.192Z,26.20
2023-03-08T20:05:17.621Z,31.83
2023-03-08T20:08:07.867Z,35.00
2023-03-08T20:11:05.895Z,27.07
2023-03-08T20:40:21.044Z,36.17
2023-03-08T20:48:45.933Z,33.70
2023-03-08T20:51:16.412Z,33.70
2023-03-08T20:53:58.949Z,31.33
2023-03-08T20:56:28.934Z,35.47
2023-03-08T20:59:14.155Z,31.40
2023-03-08T21:02:08.812Z,28.90
2023-03-08T21:18:37.347Z,19.90
2023-03-08T21:21:19.990Z,28.07
2023-03-08T21:27:12.480Z,17.17
2023-03-08T21:29:41.883Z,13.33
2023-03-08T21:32:33.457Z,13.10
2023-03-08T21:35:03.290Z,11.13
2023-03-08T21:37:31.719Z,10.40
2023-03-08T21:40:00.069Z,10.23
2023-03-08T21:42:28.816Z,10.07
2023-03-08T21:44:57.137Z,10.20
2023-03-08T21:47:25.495Z,11.10
2023-03-08T21:49:53.985Z,11.07
2023-03-08T21:52:23.355Z,10.77
2023-03-08T21:54:51.787Z,10.67
2023-03-08T21:57:20.569Z,9.80
2023-03-08T21:59:48.988Z,9.87
2023-03-08T22:02:17.365Z,9.53
2023-03-08T22:04:45.965Z,8.80
2023-03-08T22:07:14.563Z,8.07
2023-03-08T22:09:44.474Z,7.93
2023-03-08T22:12:14.880Z,7.57
2023-03-08T22:14:43.376Z,7.73
2023-03-08T22:17:11.756Z,7.47
2023-03-08T22:19:40.304Z,7.63
2023-03-08T22:22:12.730Z,7.63
2023-03-08T22:24:41.120Z,8.00
2023-03-08T22:27:10.838Z,13.27
2023-03-08T22:29:39.284Z,10.87
2023-03-08T22:32:08.516Z,12.07
2023-03-08T22:34:36.916Z,10.63
2023-03-08T22:37:06.161Z,10.43
2023-03-08T22:39:34.710Z,9.50
2023-03-08T22:42:03.452Z,8.33
2023-03-08T22:44:33.028Z,7.60
2023-03-08T22:47:01.922Z,8.27
2023-03-08T22:49:30.303Z,8.10
2023-03-08T22:51:58.676Z,7.87
2023-03-08T22:54:27.111Z,8.13
2023-03-08T22:56:56.538Z,8.83
2023-03-08T22:59:25.747Z,8.43
2023-03-08T23:01:55.735Z,8.97
2023-03-08T23:04:24.238Z,8.77
2023-03-08T23:06:52.704Z,7.97
2023-03-08T23:09:22.232Z,8.00
2023-03-08T23:11:50.797Z,8.30
2023-03-08T23:18:01.792Z,8.10
2023-03-08T23:20:30.468Z,8.03
2023-03-08T23:22:58.910Z,7.93
2023-03-08T23:25:27.636Z,10.17
2023-03-08T23:27:56.261Z,10.70
2023-03-08T23:30:25.290Z,13.20
2023-03-08T23:32:53.937Z,13.70
2023-03-08T23:35:24.117Z,16.17
2023-03-08T23:37:52.782Z,18.30
2023-03-08T23:40:21.396Z,16.97
2023-03-08T23:42:49.689Z,16.53
2023-03-08T23:45:18.009Z,17.07
2023-03-08T23:47:46.475Z,17.70
2023-03-08T23:50:14.867Z,16.83
2023-03-08T23:52:44.275Z,15.77
2023-03-08T23:55:13.247Z,14.43
2023-03-08T23:57:41.593Z,14.80
